createdAt,value
2022-11-09T12:47:48.672Z,100641.95
2022-11-09T12:48:49.384Z,100656.77
2022-11-09T12:49:50.195Z,100670.44
2022-11-09T12:50:51.374Z,100683.14
2022-11-09T12:51:54.357Z,100695.17
2022-11-09T12:52:51.849Z,100705.89
2022-11-09T12:53:53.693Z,100716.62
2022-11-09T12:54:53.189Z,100726.04
2022-11-09T12:55:55.112Z,100735.47
2022-11-09T12:56:55.821Z,100744.35
2022-11-09T12:58:00.436Z,100752.52
2022-11-09T12:58:55.793Z,100761.16
2022-11-09T12:59:57.656Z,100768.73
2022-11-09T13:00:58.687Z,100776.66
2022-11-09T13:01:59.474Z,100783.81
2022-11-09T13:02:58.930Z,100790.13
2022-11-09T13:03:59.245Z,100795.95
2022-11-09T13:04:13.961Z,100888.84
2022-11-09T13:05:15.533Z,100888.17
2022-11-09T13:06:14.812Z,100887.83
2022-11-09T13:07:16.037Z,100888.08
2022-11-09T13:08:15.560Z,100888.37
2022-11-09T13:09:16.088Z,100888.28
2022-11-09T13:10:17.923Z,100888.58
2022-11-09T13:11:19.047Z,100889.23
2022-11-09T13:12:18.008Z,100889.48
2022-11-09T13:13:18.642Z,100890.34
2022-11-09T13:14:17.663Z,100891.19
2022-11-09T13:15:19.106Z,100892.22
2022-11-09T13:16:19.548Z,100893.17
2022-11-09T13:17:18.534Z,100893.63
2022-11-09T13:18:18.575Z,100894.82
2022-11-09T13:19:19.117Z,100895.52
2022-11-09T13:20:48.383Z,100896.14
2022-11-09T13:21:19.479Z,100896.84
2022-11-09T13:22:20.671Z,100896.73
2022-11-09T13:23:31.451Z,100897.80
2022-11-09T13:24:24.323Z,100898.28
2022-11-09T13:25:21.172Z,100899.17
2022-11-09T13:26:23.156Z,100899.70
2022-11-09T13:26:33.842Z,100917.87
2022-11-09T13:27:34.033Z,100917.36
2022-11-09T13:28:35.046Z,100917.70
2022-11-09T13:29:35.871Z,100917.48
2022-11-09T13:30:35.495Z,100917.06
2022-11-09T13:31:36.602Z,100916.47
2022-11-09T13:32:36.058Z,100915.63
2022-11-09T13:33:37.418Z,100915.28
2022-11-09T13:34:36.422Z,100914.48
2022-11-09T13:35:36.983Z,100914.40
2022-11-09T13:36:37.767Z,100914.36
2022-11-09T13:37:38.902Z,100913.65
2022-11-09T13:38:38.670Z,100913.33
2022-11-09T13:39:40.617Z,100912.88
2022-11-09T13:40:40.476Z,100912.42
2022-11-09T13:41:41.303Z,100911.87
2022-11-09T13:42:42.882Z,100911.25
2022-11-09T13:43:43.197Z,100911.31
2022-11-09T13:44:44.610Z,100911.54
2022-11-09T13:45:42.983Z,100910.80
2022-11-09T13:46:44.253Z,100911.02
2022-11-09T13:47:44.309Z,100910.91
2022-11-09T13:48:03.683Z,100924.00
2022-11-09T13:49:04.417Z,100923.50
2022-11-09T13:50:05.283Z,100923.11
2022-11-09T13:51:05.914Z,100922.77
2022-11-09T13:52:07.344Z,100922.81
2022-11-09T13:53:07.530Z,100922.35
2022-11-09T13:54:07.517Z,100922.61
2022-11-09T13:55:09.337Z,100922.16
2022-11-09T13:56:09.142Z,100921.95
2022-11-09T13:57:09.983Z,100922.34
2022-11-09T13:58:11.781Z,100921.93
2022-11-09T13:59:13.535Z,100921.22
2022-11-09T14:00:22.733Z,100921.27
2022-11-09T14:01:26.675Z,100921.02
2022-11-09T14:02:27.519Z,100919.89
2022-11-09T14:04:00.805Z,100902.11
2022-11-09T14:04:40.373Z,100902.45
2022-11-09T14:05:40.784Z,100902.63
2022-11-09T14:06:44.198Z,100902.28
2022-11-09T14:07:42.792Z,100902.28
2022-11-09T14:08:43.019Z,100902.63
2022-11-09T14:09:44.154Z,100902.63
2022-11-09T14:10:44.043Z,100902.63
2022-11-09T14:11:46.885Z,100902.80
2022-11-09T14:14:05.992Z,100902.95
2022-11-09T14:14:48.450Z,100903.62
2022-11-09T14:15:03.878Z,100903.12
2022-11-09T14:15:47.137Z,100903.80
2022-11-09T14:16:50.800Z,100903.80
2022-11-09T14:17:51.020Z,100903.80
2022-11-09T14:18:55.113Z,100903.55
2022-11-09T14:19:49.274Z,100904.74
2022-11-09T14:20:49.700Z,100904.92
2022-11-09T14:21:50.569Z,100905.47
2022-11-09T14:22:51.392Z,100905.31
2022-11-09T14:23:33.263Z,100908.05
2022-11-09T14:24:33.576Z,100907.49
2022-11-09T14:25:34.314Z,100907.49
2022-11-09T14:26:38.849Z,100907.33
2022-11-09T14:27:35.836Z,100907.49
2022-11-09T14:28:37.533Z,100907.24
2022-11-09T14:29:36.640Z,100907.49
2022-11-09T14:30:38.276Z,100907.24
2022-11-09T14:31:42.735Z,100907.00
2022-11-09T14:32:38.716Z,100907.12
2022-11-09T14:33:39.775Z,100907.12
2022-11-09T14:34:39.538Z,100907.38
2022-11-09T14:35:40.459Z,100907.38
2022-11-09T14:37:01.872Z,100907.39
2022-11-09T14:37:41.197Z,100907.73
2022-11-09T14:38:41.343Z,100907.78
2022-11-09T14:39:44.748Z,100908.30
2022-11-09T14:40:42.439Z,100909.09
2022-11-09T14:41:42.584Z,100909.03
2022-11-09T14:43:08.834Z,100909.58
2022-11-09T14:44:01.935Z,100909.67
2022-11-09T14:44:46.277Z,100910.35
2022-11-09T14:45:48.386Z,100910.23
2022-11-09T14:46:46.992Z,100910.58
2022-11-09T14:47:52.246Z,100910.88
2022-11-09T14:51:51.561Z,100921.27
2022-11-09T14:56:13.277Z,100920.93
2022-11-09T15:00:31.330Z,100920.27
2022-11-09T15:01:34.544Z,100919.97
2022-11-09T15:05:56.337Z,100919.64
2022-11-09T15:08:03.065Z,100919.83
2022-11-09T15:12:19.476Z,100920.00
2022-11-09T15:13:19.887Z,100919.52
2022-11-09T15:14:20.663Z,100920.09
2022-11-09T15:15:21.029Z,100919.73
2022-11-09T15:16:21.641Z,100919.92
2022-11-09T15:17:23.294Z,100919.48
2022-11-09T15:18:23.868Z,100919.43
2022-11-09T15:19:22.894Z,100919.25
2022-11-09T15:20:24.407Z,100919.66
2022-11-09T15:21:24.145Z,100919.73
2022-11-09T15:22:25.685Z,100920.19
2022-11-09T15:23:26.698Z,100920.51
2022-11-09T15:24:26.067Z,100920.73
2022-11-09T15:25:27.928Z,100920.77
2022-11-09T15:26:28.896Z,100920.63
2022-11-09T15:27:28.558Z,100920.89
2022-11-09T15:31:48.063Z,100920.63
2022-11-09T15:37:25.257Z,100912.80
2022-11-09T15:39:21.802Z,100912.42
2022-11-09T15:39:31.832Z,100912.59
2022-11-09T15:40:46.795Z,100913.09
2022-11-09T15:41:33.362Z,100913.10
2022-11-09T15:43:44.071Z,100913.73
2022-11-09T15:44:41.165Z,100913.83
2022-11-09T15:45:49.368Z,100914.55
2022-11-09T15:46:42.730Z,100915.02
2022-11-09T15:48:45.719Z,100915.28
2022-11-09T15:48:46.496Z,100916.09
2022-11-09T15:51:40.727Z,100916.31
2022-11-09T15:54:56.437Z,100917.00
2022-11-09T15:55:57.396Z,100918.17
2022-11-09T15:58:50.938Z,100920.76
2022-11-09T16:00:09.484Z,100922.31
2022-11-09T16:01:06.306Z,100923.39
2022-11-09T16:02:55.068Z,100924.28
2022-11-09T16:03:19.704Z,100924.01
2022-11-09T16:04:07.401Z,100925.29
2022-11-09T16:08:27.500Z,100925.56
2022-11-09T16:10:38.765Z,100926.34
2022-11-09T16:11:59.667Z,100926.38
2022-11-09T16:18:44.824Z,100928.03
2022-11-09T16:19:36.197Z,100928.77
2022-11-09T16:19:42.391Z,100927.55
2022-11-09T16:20:52.427Z,100936.11
2022-11-09T16:21:52.316Z,100935.69
2022-11-09T16:27:49.474Z,100936.40
2022-11-09T16:29:02.809Z,100937.50
2022-11-09T16:30:33.642Z,100940.59
2022-11-09T16:31:50.884Z,100942.03
2022-11-09T16:31:52.912Z,100938.94
2022-11-09T16:32:29.757Z,100943.56
2022-11-09T16:35:36.784Z,100948.81
2022-11-09T16:37:43.927Z,100951.77
2022-11-09T16:38:40.768Z,100953.08
2022-11-09T16:39:32.198Z,100950.29
2022-11-09T16:39:46.431Z,100954.70
2022-11-09T16:48:10.342Z,101001.28
2022-11-09T16:50:32.120Z,101000.19
2022-11-09T16:50:34.664Z,101000.95
2022-11-09T16:51:56.355Z,101000.45
2022-11-09T16:53:26.511Z,101001.16
2022-11-09T16:53:30.020Z,101000.48
2022-11-09T16:54:13.709Z,101001.38
2022-11-09T16:58:15.558Z,101001.97
2022-11-09T16:59:53.540Z,101002.17
2022-11-09T17:02:12.857Z,101002.89
2022-11-09T17:02:21.136Z,101004.00
2022-11-09T17:03:13.940Z,101005.14
2022-11-09T17:04:55.891Z,101029.28
2022-11-09T17:08:51.988Z,101029.06
2022-11-09T17:08:55.492Z,101030.13
2022-11-09T17:09:35.146Z,101029.45
2022-11-09T17:10:54.039Z,101031.44
2022-11-09T17:11:15.077Z,101030.80
2022-11-09T17:12:04.580Z,101029.80
2022-11-09T17:12:11.452Z,101031.95
2022-11-09T17:15:04.873Z,101034.78
2022-11-09T17:15:29.495Z,101034.09
2022-11-09T17:18:14.778Z,101037.36
2022-11-09T17:18:33.040Z,101036.59
2022-11-09T17:19:02.519Z,101038.24
2022-11-09T17:20:04.606Z,101061.94
2022-11-09T17:21:03.898Z,101061.27
2022-11-09T17:22:07.763Z,101060.25
2022-11-09T17:23:05.514Z,101060.77
2022-11-09T17:24:05.292Z,101060.63
2022-11-09T17:25:07.861Z,101060.89
2022-11-09T17:26:06.314Z,101060.97
2022-11-09T17:27:06.523Z,101061.56
2022-11-09T17:28:07.414Z,101062.11
2022-11-09T17:29:08.840Z,101062.62
2022-11-09T17:30:08.477Z,101063.00
2022-11-09T17:31:15.300Z,101063.54
2022-11-09T17:32:10.460Z,101064.14
2022-11-09T17:33:13.257Z,101065.02
2022-11-09T17:34:11.518Z,101065.82
2022-11-09T17:35:11.347Z,101066.70
2022-11-09T17:36:13.165Z,101067.67
2022-11-09T17:37:13.065Z,101068.39
2022-11-09T17:38:13.855Z,101069.67
2022-11-09T17:39:14.739Z,101070.50
2022-11-09T17:40:15.637Z,101071.47
2022-11-09T17:41:16.464Z,101072.19
2022-11-09T17:42:18.363Z,101072.83
2022-11-09T17:43:18.262Z,101073.96
2022-11-09T17:45:47.659Z,101093.86
2022-11-09T17:46:47.338Z,101093.30
2022-11-09T17:49:30.489Z,101093.42
2022-11-09T17:52:48.480Z,101095.52
2022-11-09T17:53:52.359Z,101095.36
2022-11-09T17:54:50.035Z,101094.97
2022-11-09T17:55:50.858Z,101095.64
2022-11-09T17:56:52.390Z,101095.64
2022-11-09T17:57:53.395Z,101096.75
2022-11-09T17:58:52.635Z,101096.95
2022-11-09T17:59:51.814Z,101098.48
2022-11-09T18:00:55.394Z,101099.27
2022-11-09T18:01:53.184Z,101100.58
2022-11-09T18:02:58.584Z,101101.88
2022-11-09T18:03:54.389Z,101103.23
2022-11-09T18:04:55.229Z,101104.63
2022-11-09T18:05:59.944Z,101105.98
2022-11-09T18:06:56.874Z,101107.53
2022-11-09T18:07:56.643Z,101109.01
2022-11-09T18:09:25.894Z,101110.06
2022-11-09T18:10:19.137Z,101135.34
2022-11-09T18:11:19.977Z,101135.34
2022-11-09T18:12:21.876Z,101135.26
2022-11-09T18:13:21.794Z,101135.37
2022-11-09T18:14:22.615Z,101135.63
2022-11-09T18:15:23.512Z,101136.47
2022-11-09T18:16:24.330Z,101136.64
2022-11-09T18:17:25.178Z,101137.44
2022-11-09T18:18:25.443Z,101138.45
2022-11-09T18:19:43.698Z,101138.80
2022-11-09T18:20:30.150Z,101139.72
2022-11-09T18:21:44.574Z,101140.52
2022-11-09T18:22:30.352Z,101141.20
2022-11-09T18:23:37.076Z,101142.08
2022-11-09T18:24:30.094Z,101142.75
2022-11-09T18:25:29.061Z,101143.80
2022-11-09T18:26:48.508Z,101144.81
2022-11-09T18:27:31.014Z,101146.70
2022-11-09T18:28:33.004Z,101148.18
2022-11-09T18:34:28.154Z,101184.28
2022-11-09T18:35:32.219Z,101184.03
2022-11-09T18:38:47.346Z,101184.25
2022-11-09T18:39:38.998Z,101184.51
2022-11-09T18:40:42.083Z,101184.93
2022-11-09T18:41:58.150Z,101185.86
2022-11-09T18:42:48.333Z,101186.31
2022-11-09T18:44:44.304Z,101188.33
2022-11-09T18:45:43.122Z,101189.69
2022-11-09T18:46:44.003Z,101189.80
2022-11-09T18:47:49.991Z,101191.16
2022-11-09T18:48:45.083Z,101192.03
2022-11-09T18:49:47.407Z,101192.87
2022-11-09T18:51:06.971Z,101194.09
2022-11-09T18:52:26.269Z,101195.31
2022-11-09T18:52:46.079Z,101196.16
2022-11-09T18:53:47.371Z,101197.77
2022-11-09T18:54:47.371Z,101198.89
2022-11-09T19:00:12.566Z,101216.89
2022-11-09T19:01:13.230Z,101216.89
2022-11-09T19:02:51.706Z,101216.51
2022-11-09T19:03:04.133Z,101216.84
2022-11-09T19:05:51.558Z,101217.27
2022-11-09T19:07:04.540Z,101217.27
2022-11-09T19:07:14.285Z,101217.27
2022-11-09T19:08:07.931Z,101217.61
2022-11-09T19:09:08.796Z,101217.35
2022-11-09T19:10:15.221Z,101217.35
2022-11-09T19:11:09.776Z,101218.11
2022-11-09T19:12:09.795Z,101218.28
2022-11-09T19:14:41.982Z,101233.75
2022-11-09T19:16:08.555Z,101233.58
2022-11-09T19:16:49.384Z,101233.23
2022-11-09T19:17:42.732Z,101233.07
2022-11-09T19:18:43.652Z,101232.65
2022-11-09T19:19:47.219Z,101232.98
2022-11-09T19:20:44.334Z,101232.65
2022-11-09T19:22:45.377Z,101233.70
2022-11-09T19:26:44.254Z,101235.30
2022-11-09T19:27:03.865Z,101236.57
2022-11-09T19:27:47.574Z,101237.50
2022-11-09T19:28:49.193Z,101238.39
2022-11-09T19:29:49.124Z,101238.98
2022-11-09T19:30:50.039Z,101240.08
2022-11-09T19:36:29.136Z,101266.97
2022-11-09T19:37:01.143Z,101266.38
2022-11-09T19:38:06.243Z,101266.55
2022-11-09T19:39:02.802Z,101266.16
2022-11-09T19:40:03.995Z,101266.42
2022-11-09T19:41:20.430Z,101267.09
2022-11-09T19:42:05.795Z,101266.67
2022-11-09T19:43:09.939Z,101266.89
2022-11-09T19:44:04.107Z,101266.94
2022-11-09T19:45:12.137Z,101267.41
2022-11-09T19:47:07.364Z,101267.30
2022-11-09T19:48:23.023Z,101267.43
2022-11-09T19:48:47.048Z,101267.13
2022-11-09T19:49:05.576Z,101267.98
2022-11-09T19:50:06.063Z,101267.91
2022-11-09T19:51:08.588Z,101267.75
2022-11-09T19:52:07.171Z,101267.55
2022-11-09T19:53:07.218Z,101267.78
2022-11-09T19:54:15.854Z,101267.29
2022-11-09T19:57:43.602Z,101268.59
2022-11-09T19:58:41.253Z,101268.09
2022-11-09T19:59:43.347Z,101267.41
2022-11-09T20:00:42.086Z,101267.58
2022-11-09T20:01:43.920Z,101267.58
2022-11-09T20:02:44.877Z,101267.58
2022-11-09T20:03:45.811Z,101267.92
2022-11-09T20:04:44.892Z,101267.97
2022-11-09T20:05:45.734Z,101268.90
2022-11-09T20:06:48.355Z,101269.06
2022-11-09T20:07:47.068Z,101269.41
2022-11-09T20:08:47.878Z,101269.32
2022-11-09T20:09:48.704Z,101269.83
2022-11-09T20:10:51.814Z,101270.50
2022-11-09T20:11:50.142Z,101270.84
2022-11-09T20:12:58.460Z,101270.84
2022-11-09T20:13:52.027Z,101271.01
2022-11-09T20:14:54.970Z,101271.52
2022-11-09T20:15:53.838Z,101271.89
2022-11-09T20:16:45.083Z,101282.13
2022-11-09T20:17:41.305Z,101281.95
2022-11-09T20:23:08.167Z,101281.88
2022-11-09T20:24:07.841Z,101282.75
2022-11-09T20:25:06.431Z,101284.44
2022-11-09T20:26:07.282Z,101285.91
2022-11-09T20:27:21.206Z,101287.72
2022-11-09T20:28:15.450Z,101288.86
2022-11-09T20:29:26.576Z,101290.33
2022-11-09T20:30:23.757Z,101291.89
2022-11-09T20:31:18.583Z,101293.45
2022-11-09T20:32:21.358Z,101295.08
2022-11-09T20:33:51.706Z,101324.32
2022-11-09T20:35:25.456Z,101323.90
2022-11-09T20:35:47.049Z,101323.98
2022-11-09T20:36:41.539Z,101324.41
2022-11-09T20:37:42.377Z,101324.87
2022-11-09T20:38:42.406Z,101325.30
2022-11-09T20:39:42.639Z,101325.77
2022-11-09T20:40:42.842Z,101326.61
2022-11-09T20:41:44.286Z,101327.09
2022-11-09T20:42:44.083Z,101327.84
2022-11-09T20:43:44.114Z,101328.23
2022-11-09T20:44:44.676Z,101329.13
2022-11-09T20:45:45.100Z,101329.69
2022-11-09T20:46:45.406Z,101330.58
2022-11-09T20:48:10.463Z,101331.68
2022-11-09T20:48:54.052Z,101332.83
2022-11-09T20:49:46.840Z,101333.25
2022-11-09T20:50:47.121Z,101334.23
2022-11-09T20:51:48.057Z,101334.73
2022-11-09T20:52:48.269Z,101336.17
2022-11-09T20:53:49.076Z,101337.44
2022-11-09T20:54:49.362Z,101338.33
2022-11-09T20:55:49.416Z,101339.34
2022-11-09T20:56:01.134Z,101362.76
2022-11-09T20:57:01.938Z,101362.17
2022-11-09T20:58:03.134Z,101362.67
2022-11-09T20:59:02.549Z,101362.42
2022-11-09T21:00:04.360Z,101362.59
2022-11-09T21:01:34.290Z,101362.89
2022-11-09T21:02:34.614Z,101363.23
2022-11-09T21:03:36.011Z,101363.85
2022-11-09T21:04:35.820Z,101364.45
2022-11-09T21:05:37.695Z,101364.78
2022-11-09T21:06:38.648Z,101365.12
2022-11-09T21:07:37.787Z,101366.05
2022-11-09T21:08:38.628Z,101367.23
2022-11-09T21:09:39.547Z,101368.30
2022-11-09T21:10:40.602Z,101369.90
2022-11-09T21:11:39.747Z,101371.34
2022-11-09T21:12:41.541Z,101373.20
2022-11-09T21:13:41.775Z,101374.16
2022-11-09T21:14:42.751Z,101375.42
2022-11-09T21:15:42.529Z,101377.38
2022-11-09T21:16:44.395Z,101378.59
2022-11-09T21:16:56.217Z,101398.17
2022-11-09T21:17:56.689Z,101397.58
2022-11-09T21:18:56.963Z,101398.00
2022-11-09T21:19:57.511Z,101398.00
2022-11-09T21:20:59.477Z,101398.17
2022-11-09T21:22:00.018Z,101398.34
2022-11-09T21:22:59.876Z,101399.16
2022-11-09T21:24:01.500Z,101399.41
2022-11-09T21:25:01.906Z,101400.67
2022-11-09T21:26:01.765Z,101401.31
2022-11-09T21:27:01.936Z,101401.66
2022-11-09T21:28:01.759Z,101402.07
2022-11-09T21:29:02.626Z,101402.63
2022-11-09T21:30:03.170Z,101403.70
2022-11-09T21:31:03.129Z,101404.67
2022-11-09T21:32:04.707Z,101405.34
2022-11-09T21:33:04.624Z,101405.94
2022-11-09T21:34:06.395Z,101406.75
2022-11-09T21:35:05.661Z,101407.43
2022-11-09T21:36:07.069Z,101408.44
2022-11-09T21:36:24.600Z,101424.63
2022-11-09T21:37:24.023Z,101423.95
2022-11-09T21:38:24.919Z,101423.31
2022-11-09T21:39:25.564Z,101423.73
2022-11-09T21:40:26.181Z,101423.65
2022-11-09T21:41:28.079Z,101423.43
2022-11-09T21:42:28.666Z,101423.55
2022-11-09T21:43:29.520Z,101424.42
2022-11-09T21:44:28.558Z,101424.59
2022-11-09T21:45:28.862Z,101424.84
2022-11-09T21:46:29.707Z,101424.96
2022-11-09T21:47:30.316Z,101425.86
2022-11-09T21:48:32.138Z,101426.53
2022-11-09T21:49:31.917Z,101427.89
2022-11-09T21:50:33.452Z,101428.94
2022-11-09T21:51:33.254Z,101429.95
2022-11-09T21:51:48.519Z,101451.18
2022-11-09T21:52:47.942Z,101450.84
2022-11-09T21:53:48.270Z,101450.41
2022-11-09T21:54:49.414Z,101450.92
2022-11-09T21:55:49.145Z,101451.04
2022-11-09T21:56:49.969Z,101451.63
2022-11-09T21:57:50.845Z,101451.55
2022-11-09T21:58:51.116Z,101451.75
2022-11-09T21:59:54.710Z,101452.17
2022-11-09T22:00:51.580Z,101452.26
2022-11-09T22:01:51.798Z,101452.71
2022-11-09T22:02:52.500Z,101452.88
2022-11-09T22:03:52.838Z,101453.39
2022-11-09T22:04:53.434Z,101454.40
2022-11-09T22:05:54.256Z,101454.56
2022-11-09T22:06:55.113Z,101454.56
2022-11-09T22:07:07.369Z,101459.80
2022-11-09T22:08:07.813Z,101459.38
2022-11-09T22:09:08.112Z,101459.55
2022-11-09T22:10:11.411Z,101460.05
2022-11-09T22:11:09.929Z,101460.47
2022-11-09T22:12:10.346Z,101460.64
2022-11-09T22:13:11.163Z,101461.38
2022-11-09T22:14:12.562Z,101461.45
2022-11-09T22:15:14.479Z,101462.72
2022-11-09T22:16:13.103Z,101463.91
2022-11-09T22:17:13.628Z,101463.73
2022-11-09T22:18:14.471Z,101464.70
2022-11-09T22:19:14.893Z,101465.38
2022-11-09T22:20:15.757Z,101465.66
2022-11-09T22:20:31.561Z,101475.02
2022-11-09T22:21:31.243Z,101474.67
2022-11-09T22:22:33.095Z,101474.09
2022-11-09T22:23:32.971Z,101473.58
2022-11-09T22:24:33.835Z,101473.46
2022-11-09T22:25:35.690Z,101472.28
2022-11-09T22:26:36.551Z,101472.28
2022-11-09T22:27:37.510Z,101472.25
2022-11-09T22:28:36.618Z,101472.16
2022-11-09T22:29:37.749Z,101472.59
2022-11-09T22:30:37.242Z,101472.47
2022-11-09T22:31:37.940Z,101472.97
2022-11-09T22:32:38.534Z,101472.72
2022-11-09T22:33:39.420Z,101472.69
2022-11-09T22:33:56.844Z,101475.06
2022-11-09T22:34:58.043Z,101474.00
2022-11-09T22:35:57.474Z,101474.16
2022-11-09T22:36:58.349Z,101474.00
2022-11-09T22:37:58.460Z,101474.00
2022-11-09T22:38:59.286Z,101474.16
2022-11-09T22:40:00.809Z,101474.22
2022-11-09T22:41:00.430Z,101473.71
2022-11-09T22:42:02.274Z,101473.71
2022-11-09T22:43:01.610Z,101473.38
2022-11-09T22:44:03.509Z,101473.63
2022-11-09T22:45:03.364Z,101473.71
2022-11-09T22:45:13.878Z,101483.22
2022-11-09T22:46:14.744Z,101482.45
2022-11-09T22:47:14.944Z,101482.45
2022-11-09T22:48:15.725Z,101482.03
2022-11-09T22:49:18.365Z,101482.51
2022-11-09T22:50:16.233Z,101482.77
2022-11-09T22:51:16.678Z,101482.67
2022-11-09T22:52:18.750Z,101482.67
2022-11-09T22:53:18.521Z,101482.25
2022-11-09T22:54:19.455Z,101482.17
2022-11-09T22:55:19.008Z,101482.54
2022-11-09T22:56:19.835Z,101482.88
2022-11-09T22:57:20.685Z,101483.16
2022-11-09T22:58:20.980Z,101483.11
2022-11-09T22:59:21.790Z,101483.56
2022-11-09T22:59:37.616Z,101490.63
2022-11-09T23:00:37.795Z,101489.86
2022-11-09T23:01:38.726Z,101490.03
2022-11-09T23:02:39.472Z,101490.45
2022-11-09T23:03:39.982Z,101490.28
2022-11-09T23:04:40.806Z,101490.51
2022-11-09T23:05:42.111Z,101490.67
2022-11-09T23:06:47.978Z,101490.81
2022-11-09T23:07:42.743Z,101490.81
2022-11-09T23:08:42.872Z,101491.80
2022-11-09T23:09:43.745Z,101491.71
2022-11-09T23:10:45.974Z,101492.02
2022-11-09T23:11:44.894Z,101492.36
2022-11-09T23:12:45.725Z,101492.74
2022-11-09T23:13:46.612Z,101493.13
2022-11-09T23:14:09.005Z,101495.62
2022-11-09T23:15:10.574Z,101495.62
2022-11-09T23:16:12.463Z,101495.73
2022-11-09T23:17:10.794Z,101496.04
2022-11-09T23:18:10.502Z,101496.38
2022-11-09T23:19:11.418Z,101496.46
2022-11-09T23:20:12.749Z,101496.80
2022-11-09T23:21:12.871Z,101497.56
2022-11-09T23:22:14.707Z,101497.56
2022-11-09T23:23:13.681Z,101498.13
2022-11-09T23:24:15.506Z,101498.88
2022-11-09T23:25:15.497Z,101499.47
2022-11-09T23:26:16.345Z,101499.98
2022-11-09T23:27:17.035Z,101499.89
2022-11-09T23:28:18.906Z,101500.48
2022-11-09T23:29:18.717Z,101501.28
2022-11-09T23:29:37.292Z,101511.14
2022-11-09T23:30:36.323Z,101510.98
2022-11-09T23:31:35.002Z,101510.52
2022-11-09T23:32:35.822Z,101510.35
2022-11-09T23:33:39.017Z,101510.35
2022-11-09T23:34:36.903Z,101510.35
2022-11-09T23:35:37.371Z,101510.30
2022-11-09T23:36:38.463Z,101510.52
2022-11-09T23:37:39.191Z,101510.86
2022-11-09T23:38:39.796Z,101511.78
2022-11-09T23:39:40.102Z,101512.72
2022-11-09T23:40:40.705Z,101513.14
2022-11-09T23:41:41.095Z,101513.56
2022-11-09T23:42:40.207Z,101514.19
2022-11-09T23:43:45.006Z,101515.20
2022-11-09T23:44:41.108Z,101515.56
2022-11-09T23:45:42.776Z,101517.00
2022-11-09T23:46:43.662Z,101517.84
2022-11-09T23:47:44.167Z,101518.27
2022-11-09T23:48:44.720Z,101519.45
2022-11-09T23:49:43.775Z,101520.55
2022-11-09T23:49:52.430Z,101544.61
2022-11-09T23:50:54.420Z,101544.70
2022-11-09T23:51:54.895Z,101544.27
2022-11-09T23:52:55.285Z,101544.27
2022-11-09T23:53:57.135Z,101544.70
2022-11-09T23:54:56.033Z,101544.92
2022-11-09T23:55:57.535Z,101545.09
2022-11-09T23:56:58.215Z,101545.09
2022-11-09T23:57:57.264Z,101545.59
2022-11-09T23:58:59.192Z,101545.42
2022-11-09T23:59:59.263Z,101545.42
